createdAt,value
2019-05-28T00:00:00.681Z,12.23
2019-05-28T00:00:45.587Z,12.26
2019-05-28T00:01:45.552Z,12.20
2019-05-28T00:02:45.537Z,12.18
2019-05-28T00:03:45.503Z,12.30
2019-05-28T00:04:45.540Z,12.29
2019-05-28T00:05:45.570Z,12.30
2019-05-28T00:06:45.542Z,12.26
2019-05-28T00:07:45.474Z,12.37
2019-05-28T00:08:45.446Z,12.36
2019-05-28T00:09:45.403Z,12.40
2019-05-28T00:10:45.389Z,12.33
2019-05-28T00:11:45.397Z,12.45
2019-05-28T00:12:45.356Z,12.40
2019-05-28T00:13:45.367Z,12.45
2019-05-28T00:14:45.342Z,12.40
2019-05-28T00:15:45.314Z,12.48
2019-05-28T00:16:45.301Z,12.45
2019-05-28T00:17:45.297Z,12.39
2019-05-28T00:18:45.275Z,12.37
2019-05-28T00:19:45.318Z,12.36
2019-05-28T00:20:45.277Z,12.48
2019-05-28T00:21:45.224Z,12.44
2019-05-28T00:22:45.248Z,12.33
2019-05-28T00:23:45.199Z,12.39
2019-05-28T00:24:45.241Z,12.44
2019-05-28T00:25:45.160Z,12.40
2019-05-28T00:26:45.153Z,12.39
2019-05-28T00:27:45.137Z,12.35
2019-05-28T00:28:45.133Z,12.45
2019-05-28T00:29:45.112Z,12.37
2019-05-28T00:30:45.104Z,12.28
2019-05-28T00:31:45.088Z,12.35
2019-05-28T00:32:45.054Z,12.36
2019-05-28T00:33:45.040Z,12.40
2019-05-28T00:34:45.035Z,12.39
2019-05-28T00:35:45.022Z,12.35
2019-05-28T00:36:45.015Z,12.35
2019-05-28T00:37:44.975Z,12.26
2019-05-28T00:38:44.954Z,12.32
2019-05-28T00:39:44.943Z,12.30
2019-05-28T00:40:44.942Z,12.25
2019-05-28T00:41:44.924Z,12.26
2019-05-28T00:42:44.917Z,12.32
2019-05-28T00:43:44.888Z,12.26
2019-05-28T00:44:44.874Z,12.23
2019-05-28T00:45:44.877Z,12.28
2019-05-28T00:46:44.835Z,12.30
2019-05-28T00:47:44.826Z,12.21
2019-05-28T00:48:44.821Z,12.26
2019-05-28T00:49:44.815Z,12.25
2019-05-28T00:50:44.810Z,12.21
2019-05-28T00:51:44.778Z,12.20
2019-05-28T00:52:44.764Z,12.21
2019-05-28T00:53:44.739Z,12.21
2019-05-28T00:54:44.731Z,12.15
2019-05-28T00:55:44.742Z,12.23
2019-05-28T00:56:44.747Z,12.21
2019-05-28T00:57:44.714Z,12.26
2019-05-28T00:58:44.744Z,12.18
2019-05-28T00:59:44.637Z,12.21
2019-05-28T01:00:44.645Z,12.14
2019-05-28T01:01:44.634Z,12.25
2019-05-28T01:02:44.593Z,12.23
2019-05-28T01:03:44.582Z,12.20
2019-05-28T01:04:44.570Z,12.25
2019-05-28T01:05:44.546Z,12.18
2019-05-28T01:06:44.547Z,12.23
2019-05-28T01:07:44.518Z,12.20
2019-05-28T01:08:44.552Z,12.20
2019-05-28T01:09:44.574Z,12.10
2019-05-28T01:10:44.475Z,12.17
2019-05-28T01:11:44.458Z,12.25
2019-05-28T01:12:44.441Z,12.17
2019-05-28T01:13:44.446Z,12.28
2019-05-28T01:14:44.428Z,12.17
2019-05-28T01:15:44.397Z,12.20
2019-05-28T01:16:44.374Z,12.18
2019-05-28T01:17:44.363Z,12.15
2019-05-28T01:18:44.381Z,12.11
2019-05-28T01:19:44.375Z,12.15
2019-05-28T01:20:44.329Z,12.10
2019-05-28T01:21:44.331Z,12.08
2019-05-28T01:22:44.292Z,12.10
2019-05-28T01:23:44.303Z,12.11
2019-05-28T01:24:44.257Z,12.10
2019-05-28T01:25:44.264Z,12.18
2019-05-28T01:26:44.246Z,12.15
2019-05-28T01:27:44.367Z,12.14
2019-05-28T01:28:44.278Z,12.14
2019-05-28T01:29:44.194Z,12.08
2019-05-28T01:30:54.671Z,12.03
2019-05-28T01:31:44.167Z,12.11
2019-05-28T01:32:44.177Z,12.07
2019-05-28T01:33:44.176Z,12.17
2019-05-28T01:34:44.121Z,12.14
2019-05-28T01:35:44.106Z,12.10
2019-05-28T01:36:44.076Z,12.07
2019-05-28T01:37:44.102Z,12.11
2019-05-28T01:38:44.067Z,12.07
2019-05-28T01:39:44.023Z,12.12
2019-05-28T01:40:44.043Z,12.10
2019-05-28T01:41:44.005Z,12.18
2019-05-28T01:42:43.998Z,12.12
2019-05-28T01:43:43.991Z,12.17
2019-05-28T01:44:43.954Z,12.10
2019-05-28T01:45:43.930Z,12.12
2019-05-28T01:46:43.918Z,12.12
2019-05-28T01:47:43.900Z,12.20
2019-05-28T01:48:43.908Z,12.18
2019-05-28T01:49:43.876Z,12.18
2019-05-28T01:50:43.895Z,12.10
2019-05-28T01:51:43.859Z,12.21
2019-05-28T01:52:43.837Z,12.14
2019-05-28T01:53:43.835Z,12.18
2019-05-28T01:54:43.809Z,12.17
2019-05-28T01:55:43.779Z,12.20
2019-05-28T01:56:43.759Z,12.21
2019-05-28T01:57:43.763Z,12.17
2019-05-28T01:58:43.746Z,12.17
2019-05-28T01:59:43.743Z,12.20
2019-05-28T02:00:43.722Z,12.25
2019-05-28T02:01:43.710Z,12.17
2019-05-28T02:02:43.726Z,12.15
2019-05-28T02:03:43.682Z,12.15
2019-05-28T02:04:43.757Z,12.26
2019-05-28T02:05:43.657Z,12.21
2019-05-28T02:06:43.617Z,12.18
2019-05-28T02:07:43.616Z,12.18
2019-05-28T02:08:43.674Z,12.23
2019-05-28T02:09:43.582Z,12.20
2019-05-28T02:10:43.603Z,12.25
2019-05-28T02:11:43.578Z,12.18
2019-05-28T02:12:43.542Z,12.29
2019-05-28T02:13:43.509Z,12.25
2019-05-28T02:14:43.506Z,12.21
2019-05-28T02:15:43.519Z,12.25
2019-05-28T02:16:43.477Z,12.28
2019-05-28T02:17:43.505Z,12.21
2019-05-28T02:18:43.428Z,12.25
2019-05-28T02:19:43.410Z,12.21
2019-05-28T02:20:43.460Z,12.21
2019-05-28T02:21:43.481Z,12.21
2019-05-28T02:22:43.431Z,12.21
2019-05-28T02:23:43.433Z,12.20
2019-05-28T02:24:43.645Z,12.18
2019-05-28T02:25:43.482Z,12.23
2019-05-28T02:26:43.488Z,12.23
2019-05-28T02:27:43.538Z,12.25
2019-05-28T02:28:59.170Z,12.29
2019-05-28T02:30:48.877Z,12.35
2019-05-28T02:31:48.868Z,12.23
2019-05-28T02:33:55.608Z,12.32
2019-05-28T02:34:55.252Z,12.26
2019-05-28T02:36:59.932Z,12.26
2019-05-28T02:37:59.691Z,12.26
2019-05-28T02:38:59.686Z,12.28
2019-05-28T02:39:59.671Z,12.36
2019-05-28T02:40:59.643Z,12.28
2019-05-28T02:41:59.589Z,12.37
2019-05-28T02:42:59.645Z,12.43
2019-05-28T02:43:59.593Z,12.28
2019-05-28T02:44:59.554Z,12.43
2019-05-28T02:45:59.558Z,12.35
2019-05-28T02:46:59.516Z,12.37
2019-05-28T02:47:59.505Z,12.36
2019-05-28T02:48:59.481Z,12.28
2019-05-28T02:49:59.524Z,12.25
2019-05-28T02:50:59.505Z,12.26
2019-05-28T02:51:59.447Z,12.26
2019-05-28T02:52:59.450Z,12.23
2019-05-28T02:53:59.429Z,12.37
2019-05-28T02:54:59.418Z,12.28
2019-05-28T02:55:59.499Z,12.28
2019-05-28T02:57:13.343Z,12.28
2019-05-28T02:59:05.059Z,12.21
2019-05-28T03:00:04.974Z,12.37
2019-05-28T03:01:04.973Z,12.25
2019-05-28T03:02:04.936Z,12.37
2019-05-28T03:03:04.943Z,12.29
2019-05-28T03:04:04.834Z,12.33
2019-05-28T03:05:04.781Z,12.32
2019-05-28T03:06:04.760Z,12.29
2019-05-28T03:07:04.748Z,12.30
2019-05-28T03:08:04.712Z,12.29
2019-05-28T03:09:04.692Z,12.25
2019-05-28T03:10:04.681Z,12.29
2019-05-28T03:11:04.916Z,12.23
2019-05-28T03:12:12.547Z,12.21
2019-05-28T03:14:46.676Z,12.25
2019-05-28T03:15:46.478Z,12.17
2019-05-28T03:16:46.493Z,12.20
2019-05-28T03:17:46.543Z,12.29
2019-05-28T03:18:46.415Z,12.20
2019-05-28T03:19:46.444Z,12.20
2019-05-28T03:20:46.552Z,12.23
2019-05-28T03:21:46.516Z,12.26
2019-05-28T03:22:46.599Z,12.20
2019-05-28T03:23:46.553Z,12.23
2019-05-28T03:24:46.733Z,12.21
2019-05-28T03:25:46.326Z,12.20
2019-05-28T03:26:46.291Z,12.17
2019-05-28T03:27:46.375Z,12.26
2019-05-28T03:28:46.245Z,12.21
2019-05-28T03:29:46.219Z,12.25
2019-05-28T03:30:46.214Z,12.17
2019-05-28T03:32:05.834Z,12.20
2019-05-28T03:32:46.177Z,12.28
2019-05-28T03:33:46.162Z,12.15
2019-05-28T03:34:46.148Z,12.20
2019-05-28T03:35:46.127Z,12.12
2019-05-28T03:36:46.113Z,12.17
2019-05-28T03:37:46.107Z,12.11
2019-05-28T03:38:46.080Z,12.10
2019-05-28T03:39:46.066Z,12.11
2019-05-28T03:40:46.075Z,12.14
2019-05-28T03:41:46.056Z,12.12
2019-05-28T03:42:46.127Z,12.12
2019-05-28T03:43:46.030Z,12.08
2019-05-28T03:44:46.289Z,12.08
2019-05-28T03:45:45.976Z,11.99
2019-05-28T03:46:45.972Z,12.08
2019-05-28T03:47:45.991Z,12.11
2019-05-28T03:48:45.939Z,12.03
2019-05-28T03:49:45.926Z,12.05
2019-05-28T03:50:45.904Z,12.08
2019-05-28T03:51:45.896Z,12.03
2019-05-28T03:52:45.877Z,12.00
2019-05-28T03:53:45.851Z,11.99
2019-05-28T03:54:45.837Z,12.14
2019-05-28T03:55:45.817Z,12.07
2019-05-28T03:56:45.802Z,12.07
2019-05-28T03:57:45.790Z,12.03
2019-05-28T03:58:45.797Z,12.12
2019-05-28T03:59:45.771Z,12.08
2019-05-28T04:00:45.749Z,12.08
2019-05-28T04:01:45.739Z,12.00
2019-05-28T04:02:45.717Z,11.99
2019-05-28T04:03:45.695Z,12.03
2019-05-28T04:04:45.680Z,12.03
2019-05-28T04:05:45.668Z,11.96
2019-05-28T04:06:45.653Z,12.08
2019-05-28T04:07:45.635Z,12.08
2019-05-28T04:08:45.655Z,12.07
2019-05-28T04:09:45.604Z,12.10
2019-05-28T04:10:45.585Z,11.99
2019-05-28T04:11:45.578Z,12.05
2019-05-28T04:12:45.559Z,12.08
2019-05-28T04:13:45.559Z,12.10
2019-05-28T04:14:45.522Z,12.08
2019-05-28T04:15:45.531Z,12.08
2019-05-28T04:16:45.497Z,12.07
2019-05-28T04:17:45.519Z,12.11
2019-05-28T04:18:45.461Z,12.10
2019-05-28T04:19:45.457Z,12.10
2019-05-28T04:20:45.434Z,12.17
2019-05-28T04:21:45.436Z,12.15
2019-05-28T04:22:45.406Z,12.11
2019-05-28T04:23:45.392Z,12.10
2019-05-28T04:24:45.369Z,12.23
2019-05-28T04:25:45.358Z,12.23
2019-05-28T04:26:45.370Z,12.20
2019-05-28T04:27:45.330Z,12.18
2019-05-28T04:28:45.309Z,12.20
2019-05-28T04:29:45.297Z,12.20
2019-05-28T04:30:45.282Z,12.23
2019-05-28T04:31:45.322Z,12.21
2019-05-28T04:32:45.249Z,12.32
2019-05-28T04:33:45.241Z,12.25
2019-05-28T04:34:45.227Z,12.35
2019-05-28T04:35:45.201Z,12.30
2019-05-28T04:36:45.190Z,12.32
2019-05-28T04:37:45.200Z,12.26
2019-05-28T04:38:45.155Z,12.26
2019-05-28T04:39:45.143Z,12.30
2019-05-28T04:40:45.128Z,12.26
2019-05-28T04:41:45.149Z,12.33
2019-05-28T04:42:45.148Z,12.32
2019-05-28T04:43:45.133Z,12.25
2019-05-28T04:44:45.089Z,12.39
2019-05-28T04:45:45.070Z,12.30
2019-05-28T04:46:45.039Z,12.35
2019-05-28T04:47:45.040Z,12.36
2019-05-28T04:48:45.038Z,12.37
2019-05-28T04:49:45.005Z,12.40
2019-05-28T04:50:44.977Z,12.37
2019-05-28T04:51:44.959Z,12.43
2019-05-28T04:52:44.957Z,12.48
2019-05-28T04:53:44.931Z,12.40
2019-05-28T04:54:44.919Z,12.45
2019-05-28T04:55:44.895Z,12.48
2019-05-28T04:56:44.885Z,12.45
2019-05-28T04:57:44.862Z,12.39
2019-05-28T04:58:44.876Z,12.51
2019-05-28T04:59:44.840Z,12.53
2019-05-28T05:00:44.827Z,12.53
2019-05-28T05:01:44.821Z,12.53
2019-05-28T05:02:58.883Z,12.53
2019-05-28T05:03:44.790Z,12.53
2019-05-28T05:04:44.754Z,12.48
2019-05-28T05:05:44.750Z,12.45
2019-05-28T05:06:44.733Z,12.54
2019-05-28T05:07:44.715Z,12.51
2019-05-28T05:08:44.710Z,12.50
2019-05-28T05:09:44.718Z,12.57
2019-05-28T05:10:44.697Z,12.62
2019-05-28T05:11:44.650Z,12.63
2019-05-28T05:12:44.637Z,12.68
2019-05-28T05:13:44.653Z,12.66
2019-05-28T05:14:44.602Z,12.66
2019-05-28T05:15:47.073Z,12.63
2019-05-28T05:16:44.573Z,12.69
2019-05-28T05:17:44.561Z,12.66
2019-05-28T05:18:44.563Z,12.62
2019-05-28T05:19:44.528Z,12.63
2019-05-28T05:20:44.558Z,12.62
2019-05-28T05:21:44.499Z,12.68
2019-05-28T05:22:44.485Z,12.65
2019-05-28T05:23:44.468Z,12.73
2019-05-28T05:24:44.456Z,12.63
2019-05-28T05:25:44.445Z,12.63
2019-05-28T05:26:44.423Z,12.62
2019-05-28T05:27:44.426Z,12.73
2019-05-28T05:28:44.400Z,12.75
2019-05-28T05:29:44.403Z,12.73
2019-05-28T05:30:44.367Z,12.81
2019-05-28T05:31:44.366Z,12.86
2019-05-28T05:32:44.330Z,12.86
2019-05-28T05:33:44.341Z,12.86
2019-05-28T05:34:44.316Z,12.87
2019-05-28T05:35:44.302Z,12.87
2019-05-28T05:36:44.296Z,12.91
2019-05-28T05:37:44.255Z,12.91
2019-05-28T05:38:44.238Z,12.94
2019-05-28T05:39:44.246Z,12.94
2019-05-28T05:40:44.229Z,12.93
2019-05-28T05:41:44.216Z,12.93
2019-05-28T05:42:44.176Z,12.91
2019-05-28T05:43:44.165Z,12.93
2019-05-28T05:44:44.168Z,12.90
2019-05-28T05:45:44.137Z,12.98
2019-05-28T05:46:44.119Z,12.95
2019-05-28T05:47:44.142Z,12.94
2019-05-28T05:48:44.109Z,12.91
2019-05-28T05:49:44.090Z,12.94
2019-05-28T05:50:45.310Z,12.90
2019-05-28T05:51:44.043Z,13.01
2019-05-28T05:52:44.042Z,13.01
2019-05-28T05:53:44.037Z,13.01
2019-05-28T05:54:43.993Z,13.03
2019-05-28T05:55:44.031Z,12.95
2019-05-28T05:56:43.965Z,13.01
2019-05-28T05:57:43.951Z,12.91
2019-05-28T05:58:43.949Z,12.87
2019-05-28T05:59:43.921Z,12.98
2019-05-28T06:00:43.907Z,13.02
2019-05-28T06:01:43.892Z,13.03
2019-05-28T06:02:43.878Z,13.02
2019-05-28T06:03:43.869Z,12.99
2019-05-28T06:04:43.850Z,13.01
2019-05-28T06:05:43.841Z,12.94
2019-05-28T06:06:43.818Z,13.03
2019-05-28T06:07:44.088Z,13.03
2019-05-28T06:08:43.796Z,13.02
2019-05-28T06:09:43.769Z,13.01
2019-05-28T06:10:43.760Z,13.03
2019-05-28T06:11:43.742Z,13.06
2019-05-28T06:12:43.735Z,13.16
2019-05-28T06:13:43.717Z,13.16
2019-05-28T06:14:43.705Z,13.19
2019-05-28T06:15:43.690Z,13.26
2019-05-28T06:16:43.676Z,13.27
2019-05-28T06:17:43.655Z,13.26
2019-05-28T06:18:43.655Z,13.36
2019-05-28T06:19:43.621Z,13.27
2019-05-28T06:20:43.647Z,13.43
2019-05-28T06:21:43.592Z,13.54
2019-05-28T06:22:43.602Z,13.55
2019-05-28T06:23:43.563Z,13.58
2019-05-28T06:24:43.542Z,13.65
2019-05-28T06:25:43.535Z,13.68
2019-05-28T06:26:43.524Z,13.79
2019-05-28T06:27:43.495Z,13.73
2019-05-28T06:28:43.493Z,13.76
2019-05-28T06:29:43.472Z,13.91
2019-05-28T06:30:43.484Z,13.91
2019-05-28T06:31:43.453Z,13.83
2019-05-28T06:32:43.428Z,13.97
2019-05-28T06:33:56.094Z,13.89
2019-05-28T06:34:43.400Z,14.00
2019-05-28T06:35:43.383Z,14.04
2019-05-28T06:36:43.380Z,14.11
2019-05-28T06:37:43.358Z,14.11
2019-05-28T06:38:43.345Z,14.18
2019-05-28T06:39:43.326Z,14.11
2019-05-28T06:40:43.309Z,14.18
2019-05-28T06:41:43.313Z,14.22
2019-05-28T06:42:43.285Z,14.23
2019-05-28T06:43:43.322Z,14.25
2019-05-28T06:44:43.264Z,14.23
2019-05-28T06:45:43.238Z,14.23
2019-05-28T06:46:43.227Z,14.31
2019-05-28T06:47:45.399Z,14.37
2019-05-28T06:48:43.423Z,14.34
2019-05-28T06:49:43.205Z,14.31
2019-05-28T06:50:43.171Z,14.33
2019-05-28T06:51:43.162Z,14.31
2019-05-28T06:52:43.142Z,14.33
2019-05-28T06:53:43.306Z,14.38
2019-05-28T06:54:43.114Z,14.33
2019-05-28T06:55:43.102Z,14.28
2019-05-28T06:56:43.090Z,14.28
2019-05-28T06:57:43.072Z,14.23
2019-05-28T06:58:43.058Z,14.20
2019-05-28T06:59:43.057Z,14.19
2019-05-28T07:00:43.031Z,14.19
2019-05-28T07:01:43.021Z,14.11
2019-05-28T07:02:43.001Z,14.03
2019-05-28T07:03:42.979Z,13.86
2019-05-28T07:04:43.133Z,13.79
2019-05-28T07:05:43.033Z,13.68
2019-05-28T07:06:42.945Z,13.58
2019-05-28T07:07:42.941Z,13.54
2019-05-28T07:08:42.916Z,13.39
2019-05-28T07:09:42.899Z,13.19
2019-05-28T07:10:56.501Z,13.12
2019-05-28T07:11:43.237Z,12.94
2019-05-28T07:12:42.860Z,12.90
2019-05-28T07:13:42.855Z,12.69
2019-05-28T07:14:44.507Z,12.66
2019-05-28T07:15:43.065Z,12.57
2019-05-28T07:16:59.259Z,12.43
2019-05-28T07:17:44.526Z,12.25
2019-05-28T07:18:42.761Z,12.23
2019-05-28T07:19:42.742Z,12.17
2019-05-28T07:20:42.731Z,11.95
2019-05-28T07:21:42.714Z,11.99
2019-05-28T07:22:43.682Z,11.95
2019-05-28T07:23:43.897Z,11.91
2019-05-28T07:24:42.764Z,11.80
2019-05-28T07:25:42.654Z,11.77
2019-05-28T07:26:42.631Z,11.88
2019-05-28T07:27:42.626Z,11.83
2019-05-28T07:28:42.608Z,11.81
2019-05-28T07:29:42.590Z,11.86
2019-05-28T07:30:42.577Z,11.93
2019-05-28T07:31:42.561Z,12.00
2019-05-28T07:32:42.565Z,12.00
2019-05-28T07:33:42.524Z,11.89
2019-05-28T07:34:42.522Z,11.88
2019-05-28T07:35:45.854Z,11.88
2019-05-28T07:36:42.502Z,11.89
2019-05-28T07:37:42.473Z,11.88
2019-05-28T07:38:42.454Z,11.91
2019-05-28T07:39:42.430Z,11.88
2019-05-28T07:40:42.416Z,11.93
2019-05-28T07:41:42.402Z,11.91
2019-05-28T07:42:42.406Z,11.89
2019-05-28T07:43:42.371Z,11.93
2019-05-28T07:44:42.351Z,11.93
2019-05-28T07:45:42.337Z,11.97
2019-05-28T07:46:42.347Z,11.97
2019-05-28T07:47:42.303Z,12.03
2019-05-28T07:48:42.295Z,12.02
2019-05-28T07:49:42.310Z,11.88
2019-05-28T07:50:42.256Z,12.00
2019-05-28T07:51:42.243Z,12.07
2019-05-28T07:52:42.260Z,11.96
2019-05-28T07:53:42.209Z,12.05
2019-05-28T07:54:42.213Z,12.03
2019-05-28T07:55:42.182Z,11.96
2019-05-28T07:56:42.169Z,11.83
2019-05-28T07:57:42.151Z,11.81
2019-05-28T07:58:42.133Z,11.70
2019-05-28T07:59:42.117Z,11.70
2019-05-28T08:00:42.107Z,11.68
2019-05-28T08:01:42.086Z,11.62
2019-05-28T08:02:42.077Z,11.59
2019-05-28T08:03:42.059Z,11.59
2019-05-28T08:04:47.123Z,11.51
2019-05-28T08:05:42.031Z,11.52
2019-05-28T08:06:54.332Z,11.45
2019-05-28T08:07:41.989Z,11.49
2019-05-28T08:08:41.978Z,11.56
2019-05-28T08:09:41.964Z,11.53
2019-05-28T08:10:41.946Z,11.60
2019-05-28T08:11:41.925Z,11.67
2019-05-28T08:12:41.914Z,11.73
2019-05-28T08:13:41.901Z,11.74
2019-05-28T08:14:41.882Z,11.77
2019-05-28T08:15:41.868Z,11.73
2019-05-28T08:16:52.377Z,11.88
2019-05-28T08:17:41.833Z,11.91
2019-05-28T08:18:41.848Z,11.99
2019-05-28T08:19:41.854Z,11.97
2019-05-28T08:20:41.785Z,11.91
2019-05-28T08:21:41.785Z,11.95
2019-05-28T08:22:43.219Z,11.99
2019-05-28T08:23:41.742Z,12.08
2019-05-28T08:24:41.726Z,12.10
2019-05-28T08:25:47.275Z,12.17
2019-05-28T08:26:41.688Z,12.26
2019-05-28T08:27:41.676Z,12.39
2019-05-28T08:28:41.663Z,12.35
2019-05-28T08:29:45.036Z,12.44
2019-05-28T08:30:41.639Z,12.51
2019-05-28T08:31:42.040Z,12.66
2019-05-28T08:32:42.521Z,12.65
2019-05-28T08:33:41.583Z,12.70
2019-05-28T08:34:41.574Z,12.81
2019-05-28T08:35:41.556Z,12.94
2019-05-28T08:36:41.537Z,13.01
2019-05-28T08:37:41.526Z,13.11
2019-05-28T08:38:41.547Z,13.31
2019-05-28T08:39:41.492Z,13.45
2019-05-28T08:40:41.508Z,13.54
2019-05-28T08:41:41.466Z,13.75
2019-05-28T08:42:41.905Z,13.82
2019-05-28T08:43:41.438Z,13.89
2019-05-28T08:44:41.484Z,13.95
2019-05-28T08:45:42.734Z,14.01
2019-05-28T08:46:41.406Z,14.13
2019-05-28T08:47:41.377Z,14.07
2019-05-28T08:48:41.396Z,14.12
2019-05-28T08:49:41.349Z,14.33
2019-05-28T08:50:41.338Z,14.33
2019-05-28T08:51:41.327Z,14.51
2019-05-28T08:52:41.313Z,14.58
2019-05-28T08:53:41.464Z,14.70
2019-05-28T08:54:41.296Z,14.66
2019-05-28T08:55:41.268Z,14.74
2019-05-28T08:56:41.571Z,14.81
2019-05-28T08:57:41.738Z,14.85
2019-05-28T08:58:41.638Z,14.96
2019-05-28T08:59:41.217Z,14.89
2019-05-28T09:00:41.204Z,14.92
2019-05-28T09:01:41.192Z,14.87
2019-05-28T09:02:41.170Z,14.87
2019-05-28T09:03:41.159Z,14.93
2019-05-28T09:04:41.253Z,14.90
2019-05-28T09:05:41.134Z,14.97
2019-05-28T09:06:41.197Z,14.97
2019-05-28T09:07:41.110Z,15.04
2019-05-28T09:08:41.106Z,15.00
2019-05-28T09:09:41.078Z,14.97
2019-05-28T09:10:41.066Z,15.08
2019-05-28T09:11:41.104Z,15.12
2019-05-28T09:12:41.050Z,15.18
2019-05-28T09:13:41.552Z,15.33
2019-05-28T09:14:55.653Z,15.45
2019-05-28T09:15:41.002Z,15.59
2019-05-28T09:16:41.001Z,15.54
2019-05-28T09:17:41.005Z,15.55
2019-05-28T09:18:40.979Z,15.51
2019-05-28T09:19:40.943Z,15.57
2019-05-28T09:20:40.965Z,15.51
2019-05-28T09:21:40.938Z,15.60
2019-05-28T09:22:40.914Z,15.72
2019-05-28T09:23:41.865Z,15.75
2019-05-28T09:24:40.890Z,15.80
2019-05-28T09:25:40.873Z,15.70
2019-05-28T09:26:40.887Z,15.78
2019-05-28T09:27:40.877Z,15.84
2019-05-28T09:28:40.834Z,15.94
2019-05-28T09:29:40.899Z,15.88
2019-05-28T09:30:40.851Z,15.99
2019-05-28T09:31:40.963Z,16.05
2019-05-28T09:32:40.826Z,16.16
2019-05-28T09:33:40.789Z,16.24
2019-05-28T09:34:40.770Z,16.28
2019-05-28T09:35:44.548Z,16.26
2019-05-28T09:36:41.165Z,16.32
2019-05-28T09:37:40.757Z,16.26
2019-05-28T09:38:40.768Z,16.24
2019-05-28T09:39:40.731Z,16.26
2019-05-28T09:40:50.214Z,16.18
2019-05-28T09:41:40.713Z,16.25
2019-05-28T09:42:40.721Z,16.17
2019-05-28T09:43:40.677Z,16.09
2019-05-28T09:44:40.655Z,15.96
2019-05-28T09:45:40.643Z,16.00
2019-05-28T09:46:40.643Z,15.92
2019-05-28T09:47:40.642Z,15.94
2019-05-28T09:48:40.611Z,15.99
2019-05-28T09:49:40.988Z,15.94
2019-05-28T09:50:40.567Z,15.94
2019-05-28T09:51:40.561Z,16.00
2019-05-28T09:52:53.795Z,15.91
2019-05-28T09:53:40.528Z,15.94
2019-05-28T09:54:40.534Z,15.94
2019-05-28T09:55:40.558Z,16.10
2019-05-28T09:56:40.489Z,16.03
2019-05-28T09:57:47.529Z,16.12
2019-05-28T09:58:40.470Z,16.24
2019-05-28T09:59:41.825Z,16.22
2019-05-28T10:00:56.867Z,16.16
2019-05-28T10:01:40.430Z,16.18
2019-05-28T10:02:40.409Z,16.25
2019-05-28T10:03:40.431Z,16.18
2019-05-28T10:04:49.279Z,16.18
2019-05-28T10:05:40.385Z,16.25
2019-05-28T10:06:41.769Z,16.21
2019-05-28T10:07:40.377Z,16.21
2019-05-28T10:08:40.369Z,16.24
2019-05-28T10:09:40.331Z,16.24
2019-05-28T10:10:40.314Z,16.18
2019-05-28T10:11:40.323Z,16.21
2019-05-28T10:12:40.291Z,16.28
2019-05-28T10:13:41.776Z,16.26
2019-05-28T10:14:40.269Z,16.24
2019-05-28T10:15:40.256Z,16.21
2019-05-28T10:16:40.275Z,16.17
2019-05-28T10:17:40.229Z,16.09
2019-05-28T10:18:40.252Z,16.02
2019-05-28T10:19:40.219Z,16.02
2019-05-28T10:20:40.203Z,16.05
2019-05-28T10:21:40.179Z,15.98
2019-05-28T10:22:40.160Z,16.08
2019-05-28T10:23:40.704Z,16.12
2019-05-28T10:24:40.146Z,16.22
2019-05-28T10:25:40.132Z,16.17
2019-05-28T10:26:40.113Z,16.25
2019-05-28T10:27:56.636Z,16.40
2019-05-28T10:28:40.092Z,16.49
2019-05-28T10:29:40.076Z,16.50
2019-05-28T10:30:40.070Z,16.49
2019-05-28T10:31:40.048Z,16.51
2019-05-28T10:32:40.040Z,16.55
2019-05-28T10:33:40.043Z,16.62
2019-05-28T10:34:40.018Z,16.74
2019-05-28T10:35:40.000Z,16.79
2019-05-28T10:36:40.013Z,16.79
2019-05-28T10:37:39.978Z,16.87
2019-05-28T10:38:39.987Z,16.92
2019-05-28T10:39:39.949Z,17.01
2019-05-28T10:40:39.939Z,17.01
2019-05-28T10:41:39.939Z,17.10
2019-05-28T10:42:39.915Z,17.13
2019-05-28T10:43:39.905Z,17.16
2019-05-28T10:44:39.904Z,17.16
2019-05-28T10:45:40.113Z,17.30
2019-05-28T10:46:39.869Z,17.31
2019-05-28T10:47:39.859Z,17.44
2019-05-28T10:48:39.872Z,17.57
2019-05-28T10:49:39.884Z,17.57
2019-05-28T10:50:39.841Z,17.73
2019-05-28T10:51:39.841Z,17.80
2019-05-28T10:52:39.799Z,17.90
2019-05-28T10:53:39.805Z,17.97
2019-05-28T10:54:40.087Z,18.26
2019-05-28T10:55:40.015Z,18.36
2019-05-28T10:56:39.797Z,18.49
2019-05-28T10:57:39.758Z,18.63
2019-05-28T10:58:39.733Z,18.76
2019-05-28T10:59:39.725Z,18.76
2019-05-28T11:00:39.716Z,18.88
2019-05-28T11:01:39.723Z,18.89
2019-05-28T11:02:39.708Z,18.96
2019-05-28T11:03:39.684Z,18.88
2019-05-28T11:04:39.675Z,18.91
2019-05-28T11:05:39.669Z,18.83
2019-05-28T11:06:51.319Z,18.81
2019-05-28T11:07:39.657Z,18.74
2019-05-28T11:08:39.634Z,18.81
2019-05-28T11:09:39.625Z,18.78
2019-05-28T11:10:39.612Z,18.86
2019-05-28T11:11:39.601Z,18.85
2019-05-28T11:12:39.618Z,18.79
2019-05-28T11:13:52.513Z,18.79
2019-05-28T11:14:39.594Z,18.81
2019-05-28T11:15:39.575Z,18.88
2019-05-28T11:16:39.569Z,18.83
2019-05-28T11:17:39.548Z,18.89
2019-05-28T11:18:39.531Z,18.82
2019-05-28T11:19:39.520Z,18.97
2019-05-28T11:20:39.510Z,19.08
2019-05-28T11:21:39.500Z,19.30
2019-05-28T11:22:39.492Z,19.55
2019-05-28T11:23:39.512Z,19.82
2019-05-28T11:24:39.473Z,20.07
2019-05-28T11:25:39.467Z,20.14
2019-05-28T11:26:39.457Z,20.29
2019-05-28T11:27:39.451Z,20.44
2019-05-28T11:28:39.432Z,20.50
2019-05-28T11:29:39.428Z,20.50
2019-05-28T11:30:39.438Z,20.66
2019-05-28T11:31:39.414Z,20.82
2019-05-28T11:32:39.429Z,21.05
2019-05-28T11:33:39.400Z,21.40
2019-05-28T11:34:39.401Z,21.74
2019-05-28T11:35:39.383Z,22.16
2019-05-28T11:36:39.373Z,22.46
2019-05-28T11:37:39.372Z,22.89
2019-05-28T11:38:39.370Z,23.23
2019-05-28T11:39:39.360Z,23.44
2019-05-28T11:40:39.380Z,23.76
2019-05-28T11:41:42.534Z,24.04
2019-05-28T11:42:39.345Z,24.26
2019-05-28T11:43:39.338Z,24.38
2019-05-28T11:44:39.335Z,24.47
2019-05-28T11:45:39.331Z,24.40
2019-05-28T11:46:39.327Z,24.29
2019-05-28T11:47:39.323Z,24.36
2019-05-28T11:48:39.319Z,24.40
2019-05-28T11:49:39.333Z,24.46
2019-05-28T11:50:39.316Z,24.48
2019-05-28T11:51:39.314Z,24.66
2019-05-28T11:52:39.331Z,24.75
2019-05-28T11:53:39.310Z,24.92
2019-05-28T11:54:39.324Z,24.97
2019-05-28T11:55:39.303Z,25.04
2019-05-28T11:56:39.323Z,25.22
2019-05-28T11:57:39.298Z,25.39
2019-05-28T11:58:39.296Z,25.73
2019-05-28T11:59:39.297Z,25.91
2019-05-28T12:00:39.318Z,25.96
2019-05-28T12:01:39.294Z,26.08
2019-05-28T12:02:39.311Z,26.16
2019-05-28T12:03:39.394Z,26.10
2019-05-28T12:04:39.324Z,26.30
2019-05-28T12:05:39.287Z,26.22
2019-05-28T12:06:39.287Z,26.10
2019-05-28T12:07:39.281Z,25.91
2019-05-28T12:08:39.341Z,25.56
2019-05-28T12:09:39.339Z,25.43
2019-05-28T12:10:39.282Z,25.15
2019-05-28T12:11:39.751Z,24.66
2019-05-28T12:12:39.302Z,24.26
2019-05-28T12:13:39.275Z,23.86
2019-05-28T12:14:39.286Z,23.47
2019-05-28T12:15:39.270Z,23.06
2019-05-28T12:16:39.259Z,22.74
2019-05-28T12:17:43.767Z,22.40
2019-05-28T12:18:39.253Z,22.03
2019-05-28T12:19:39.272Z,21.81
2019-05-28T12:20:39.269Z,21.48
2019-05-28T12:21:39.260Z,21.00
2019-05-28T12:22:39.231Z,20.53
2019-05-28T12:23:39.226Z,19.90
2019-05-28T12:24:39.220Z,19.35
2019-05-28T12:25:39.212Z,18.81
2019-05-28T12:26:39.252Z,18.34
2019-05-28T12:27:39.201Z,17.76
2019-05-28T12:28:39.194Z,17.19
2019-05-28T12:29:51.463Z,16.66
2019-05-28T12:30:39.167Z,16.10
2019-05-28T12:31:39.153Z,15.63
2019-05-28T12:32:39.144Z,15.08
2019-05-28T12:33:39.137Z,14.79
2019-05-28T12:34:39.130Z,14.49
2019-05-28T12:35:42.928Z,14.20
2019-05-28T12:36:39.096Z,13.83
2019-05-28T12:37:47.854Z,13.61
2019-05-28T12:38:39.153Z,13.36
2019-05-28T12:39:39.066Z,13.13
2019-05-28T12:40:47.546Z,12.87
2019-05-28T12:41:39.038Z,12.78
2019-05-28T12:42:39.027Z,12.80
2019-05-28T12:43:39.012Z,12.57
2019-05-28T12:44:41.971Z,12.44
2019-05-28T12:45:38.998Z,12.29
2019-05-28T12:46:38.981Z,12.20
2019-05-28T12:47:38.976Z,12.17
2019-05-28T12:48:38.959Z,12.11
2019-05-28T12:49:38.922Z,12.11
2019-05-28T12:50:38.909Z,12.10
2019-05-28T12:51:38.898Z,12.15
2019-05-28T12:52:38.888Z,12.23
2019-05-28T12:53:50.337Z,12.28
2019-05-28T12:54:38.865Z,12.35
2019-05-28T12:55:38.863Z,12.62
2019-05-28T12:56:38.830Z,12.94
2019-05-28T12:57:38.828Z,13.33